»·PEaware :: N137AD L52-L88

N137AD :: L52-L88

FLIGHT INFORMATION

Flight Status: Arrived
Operator: Privately registered:
United States
More flights under this callsign
Pilot: Mike Z. (25595)
Aircraft: CESSNA 172 SKYHAWK
(C172)
More flights by this aircraft type
Origin: L52 Oceano Co
United States
Destination: L88 New Cuyama
United States
More flights between these airports :: More routes between these airports
Route: L52 WYNNR L88
File this flight plan on PilotEdge
Remarks: +CW / CAT-01 Flight
Altitude:
(Current/Filed)
3,500ft
Speed:
(Current/Filed)
100kts
Departed: 21-Jul-19 09:46 AM
Arrived: 21-Jul-19 10:25 AM
Distance/Time
Traveled:
47nm/0:39
Distance/Time
To Go:
Arrived

Flight Plot

Page will automatically refresh every two minutes.

Flight plan parsing failed; only flown route is shown


Map Options




Map Legend


Flown Route
Filed Route
Departure Airport
Arrival Airport
Navaid (VOR, NDB)
Fix

Horizontal Profiles

Position Reports

Time Latitude Longitude Heading Altitude Ground
Speed
21-Jul-19 09:31 35.102465 -120.622783 34 16ft 0kts
21-Jul-19 09:32 35.102465 -120.622783 34 16ft 0kts
21-Jul-19 09:33 35.102465 -120.622783 34 16ft 0kts
21-Jul-19 09:34 35.102465 -120.622783 33 16ft 0kts
21-Jul-19 09:35 35.102465 -120.622783 33 16ft 0kts
21-Jul-19 09:36 35.102465 -120.622783 33 16ft 0kts
21-Jul-19 09:37 35.102465 -120.622783 33 16ft 0kts
21-Jul-19 09:38 35.102465 -120.622783 33 16ft 0kts
21-Jul-19 09:39 35.102465 -120.622783 33 16ft 0kts
21-Jul-19 09:40 35.102257 -120.622658 119 16ft 6kts
21-Jul-19 09:41 35.101925 -120.622112 176 17ft 0kts
21-Jul-19 09:42 35.101907 -120.622120 212 17ft 0kts
21-Jul-19 09:43 35.101908 -120.622120 213 17ft 0kts
21-Jul-19 09:44 35.101646 -120.622239 173 16ft 6kts
21-Jul-19 09:45 35.101697 -120.622559 303 20ft 67kts
21-Jul-19 09:46 35.107324 -120.642714 207 695ft 68kts
21-Jul-19 09:47 35.091936 -120.639896 110 1178ft 92kts
21-Jul-19 09:48 35.075125 -120.615358 124 1146ft 92kts
21-Jul-19 09:49 35.086041 -120.593612 24 1511ft 84kts
21-Jul-19 09:50 35.106293 -120.576869 40 2040ft 88kts
21-Jul-19 09:51 35.120209 -120.555066 94 2629ft 82kts
21-Jul-19 09:52 35.117048 -120.528312 98 3221ft 78kts
21-Jul-19 09:53 35.113545 -120.499483 97 3519ft 103kts
21-Jul-19 09:54 35.108088 -120.459107 114 3506ft 128kts
21-Jul-19 09:55 35.090574 -120.421331 87 3512ft 130kts
21-Jul-19 09:56 35.094003 -120.376796 83 3511ft 132kts
21-Jul-19 09:57 35.097591 -120.334454 84 3511ft 132kts
21-Jul-19 09:58 35.089877 -120.291853 103 3511ft 131kts
21-Jul-19 09:59 35.094326 -120.249720 72 3779ft 117kts
21-Jul-19 10:00 35.091349 -120.215591 114 4359ft 105kts
21-Jul-19 10:01 35.084730 -120.182399 114 4952ft 98kts
21-Jul-19 10:02 35.073696 -120.152722 114 5535ft 95kts
21-Jul-19 10:03 35.067974 -120.114460 82 5504ft 123kts
21-Jul-19 10:04 35.072666 -120.077137 81 5501ft 101kts
21-Jul-19 10:05 35.077159 -120.042482 80 5505ft 110kts
21-Jul-19 10:06 35.068286 -120.007014 115 5504ft 114kts
21-Jul-19 10:07 35.054411 -119.972128 115 5504ft 114kts
21-Jul-19 10:08 35.040527 -119.937018 115 5504ft 114kts
21-Jul-19 10:09 35.026727 -119.901913 115 5504ft 114kts
21-Jul-19 10:10 35.012975 -119.866727 115 5504ft 114kts
21-Jul-19 10:11 34.999299 -119.831528 115 5504ft 115kts
21-Jul-19 10:12 34.984941 -119.794374 115 5206ft 130kts
21-Jul-19 10:13 34.969178 -119.753382 114 4709ft 135kts
21-Jul-19 10:14 34.961319 -119.710769 69 4204ft 135kts
21-Jul-19 10:15 34.969341 -119.668839 79 3970ft 110kts
21-Jul-19 10:16 34.966431 -119.639798 166 3967ft 79kts
21-Jul-19 10:17 34.950437 -119.651498 234 4050ft 87kts
21-Jul-19 10:18 34.934186 -119.682798 237 4026ft 116kts
21-Jul-19 10:19 34.921499 -119.718127 293 3534ft 117kts
21-Jul-19 10:20 34.940066 -119.714846 98 3510ft 90kts
21-Jul-19 10:21 34.932006 -119.684537 113 3412ft 101kts
21-Jul-19 10:22 34.921244 -119.655500 82 2916ft 68kts
21-Jul-19 10:23 34.932086 -119.666131 297 2682ft 68kts
21-Jul-19 10:24 34.939655 -119.684857 296 2180ft 38kts
21-Jul-19 10:25 34.942664 -119.691167 353 2155ft 11kts
21-Jul-19 10:26 34.943244 -119.690847 106 2154ft 0kts
21-Jul-19 10:27 34.943244 -119.690847 106 2154ft 0kts

Navigation Log

Ident Type
Flight plan parsing failed, navigation log unavailable